Merida, Mexico

3:46 PM EST on September 28, 2016 (GMT -0500)
Vencedora | | Change Station

Elev 36 ft 20.98 °N, 89.62 °W | Updated 19 minutes ago

Mostly Cloudy
Mostly Cloudy
91.0 °F
Feels Like 103 °F
N
1.2
Wind Variable Wind from ENE

Today
High -- | Low -- °F
--% Chance of Precip.
Yesterday
High -- | Low -- °F
Precip. -- in
Pressure 29.94 in
Visibility 7.0 miles
Clouds Mostly Cloudy 2500 ft
Mostly Cloudy 30000 ft
Heat Index 103 °F
Dew Point 74 °F
Humidity 61%
Rainfall Not available.
Snow Depth Not available.
6:49 AM 6:48 PM
Waning Crescent, 4% visible
METAR MMMD 281951Z 10003KT 7SM BKN025TCU BKN300 34/24 A2994 RMK 8/208
Pressure 29.94 in
Visibility 7.0 miles
Clouds Mostly Cloudy 2500 ft
Mostly Cloudy 30000 ft
Heat Index 103 °F
Dew Point 74 °F
Humidity 61%
Rainfall Not available.
Snow Depth Not available.
6:49 AM 6:48 PM
Waning Crescent, 4% visible
METAR MMMD 281951Z 10003KT 7SM BKN025TCU BKN300 34/24 A2994 RMK 8/208

10-Day Weather Forecast

No radar image for this location.
×

Almanac

Astronomy

Sep. 28, 2016 Rise Set
Actual Time
Civil Twilight
Nautical Twilight
Astronomical Twilight
Moon
Length of Visible Light
Length of Day
Tomorrow will be .
, % of the Moon is Illuminated

Today's Extremes

Country Highs Country Lows

Community

WunderPhotos

Upload Photos

1,942,325 photos uploaded!

WunderBlog® & News

Nearby

Air Quality

  Air Quality AQ Index Pollutant
Not available.

Snow Depth

Station Depth Elevation

Earthquake Activity

City Distance Mag. Time & Date
Minimum magnitude displayed is 2.5.

Coastal Water Temperatures

Place Temperature

Stations

Nearby Weather Stations

Station Location Temp. Windchill Dew Point Humidity Wind Precip. Elev Updated Type